sensor_id;sensor_type;location;lat;lon;timestamp;pressure;altitude;pressure_sealevel;temperature;humidity
62881;BME280;48969;49.934;8.596;2023-06-14T00:00:38;100162.09;;;17.75;51.83
62881;BME280;48969;49.934;8.596;2023-06-14T00:03:08;100166.44;;;17.76;52.05
62881;BME280;48969;49.934;8.596;2023-06-14T00:05:35;100161.94;;;17.77;52.09
62881;BME280;48969;49.934;8.596;2023-06-14T00:08:05;100165.06;;;17.82;52.08
62881;BME280;48969;49.934;8.596;2023-06-14T00:10:33;100167.16;;;17.88;52.62
62881;BME280;48969;49.934;8.596;2023-06-14T00:13:03;100167.16;;;17.88;52.07
62881;BME280;48969;49.934;8.596;2023-06-14T00:15:29;100157.53;;;17.86;52.37
62881;BME280;48969;49.934;8.596;2023-06-14T00:17:56;100172.50;;;17.78;52.94
62881;BME280;48969;49.934;8.596;2023-06-14T00:20:21;100158.84;;;17.72;52.08
62881;BME280;48969;49.934;8.596;2023-06-14T00:22:47;100163.53;;;17.70;52.26
62881;BME280;48969;49.934;8.596;2023-06-14T00:25:13;100157.03;;;17.63;52.35
62881;BME280;48969;49.934;8.596;2023-06-14T00:27:38;100172.75;;;17.48;52.31
62881;BME280;48969;49.934;8.596;2023-06-14T00:30:04;100164.88;;;17.37;52.50
62881;BME280;48969;49.934;8.596;2023-06-14T00:32:29;100173.06;;;17.25;52.64
62881;BME280;48969;49.934;8.596;2023-06-14T00:34:55;100174.63;;;17.18;53.07
62881;BME280;48969;49.934;8.596;2023-06-14T00:37:20;100169.53;;;17.15;53.02
62881;BME280;48969;49.934;8.596;2023-06-14T00:39:45;100169.53;;;17.15;53.15
62881;BME280;48969;49.934;8.596;2023-06-14T00:42:11;100167.88;;;17.04;53.56
62881;BME280;48969;49.934;8.596;2023-06-14T00:44:36;100165.19;;;17.04;53.61
62881;BME280;48969;49.934;8.596;2023-06-14T00:47:01;100167.88;;;16.95;53.93
62881;BME280;48969;49.934;8.596;2023-06-14T00:49:29;100174.50;;;16.90;54.16
62881;BME280;48969;49.934;8.596;2023-06-14T00:51:54;100168.69;;;16.85;54.36
62881;BME280;48969;49.934;8.596;2023-06-14T00:54:20;100176.44;;;16.79;54.52
62881;BME280;48969;49.934;8.596;2023-06-14T00:56:45;100172.19;;;16.76;54.68
62881;BME280;48969;49.934;8.596;2023-06-14T00:59:10;100173.59;;;16.70;54.66
62881;BME280;48969;49.934;8.596;2023-06-14T01:01:36;100175.88;;;16.65;54.92
62881;BME280;48969;49.934;8.596;2023-06-14T01:04:02;100183.19;;;16.63;55.06
62881;BME280;48969;49.934;8.596;2023-06-14T01:06:40;100179.78;;;16.61;55.10
62881;BME280;48969;49.934;8.596;2023-06-14T01:10:19;100185.28;;;16.60;55.07
62881;BME280;48969;49.934;8.596;2023-06-14T01:12:25;100184.44;;;16.49;55.49
62881;BME280;48969;49.934;8.596;2023-06-14T01:14:55;100176.66;;;16.46;55.37
62881;BME280;48969;49.934;8.596;2023-06-14T01:17:24;100179.34;;;16.46;55.63
62881;BME280;48969;49.934;8.596;2023-06-14T01:19:52;100182.28;;;16.43;55.89
62881;BME280;48969;49.934;8.596;2023-06-14T01:22:24;100180.63;;;16.42;55.69
62881;BME280;48969;49.934;8.596;2023-06-14T01:24:51;100182.28;;;16.43;55.72
62881;BME280;48969;49.934;8.596;2023-06-14T01:27:23;100178.06;;;16.41;55.99
62881;BME280;48969;49.934;8.596;2023-06-14T01:29:51;100180.31;;;16.36;56.22
62881;BME280;48969;49.934;8.596;2023-06-14T01:32:18;100177.78;;;16.34;56.27
62881;BME280;48969;49.934;8.596;2023-06-14T01:34:44;100184.25;;;16.31;56.27
62881;BME280;48969;49.934;8.596;2023-06-14T01:37:11;100188.88;;;16.29;56.33
62881;BME280;48969;49.934;8.596;2023-06-14T01:39:36;100193.53;;;16.27;56.23
62881;BME280;48969;49.934;8.596;2023-06-14T01:42:02;100188.44;;;16.24;56.44
62881;BME280;48969;49.934;8.596;2023-06-14T01:44:29;100186.50;;;16.26;56.30
62881;BME280;48969;49.934;8.596;2023-06-14T01:46:55;100198.31;;;16.24;56.50
62881;BME280;48969;49.934;8.596;2023-06-14T01:49:21;100190.00;;;16.27;56.31
62881;BME280;48969;49.934;8.596;2023-06-14T01:51:46;100193.66;;;16.26;56.24
62881;BME280;48969;49.934;8.596;2023-06-14T01:54:11;100197.03;;;16.28;56.06
62881;BME280;48969;49.934;8.596;2023-06-14T01:56:36;100195.34;;;16.27;56.06
62881;BME280;48969;49.934;8.596;2023-06-14T01:59:02;100194.78;;;16.23;56.42
62881;BME280;48969;49.934;8.596;2023-06-14T02:01:27;100192.81;;;16.25;56.11
62881;BME280;48969;49.934;8.596;2023-06-14T02:03:53;100194.34;;;16.18;56.32
62881;BME280;48969;49.934;8.596;2023-06-14T02:06:18;100195.47;;;16.16;56.32
62881;BME280;48969;49.934;8.596;2023-06-14T02:08:44;100187.72;;;16.13;56.41
62881;BME280;48969;49.934;8.596;2023-06-14T02:11:09;100188.97;;;16.08;56.61
62881;BME280;48969;49.934;8.596;2023-06-14T02:13:35;100192.19;;;16.12;56.32
62881;BME280;48969;49.934;8.596;2023-06-14T02:16:00;100196.72;;;16.12;56.54
62881;BME280;48969;49.934;8.596;2023-06-14T02:18:26;100199.50;;;16.10;56.79
62881;BME280;48969;49.934;8.596;2023-06-14T02:20:52;100207.13;;;16.15;56.63
62881;BME280;48969;49.934;8.596;2023-06-14T02:23:17;100207.28;;;16.13;56.66
62881;BME280;48969;49.934;8.596;2023-06-14T02:25:43;100213.75;;;16.10;56.58
62881;BME280;48969;49.934;8.596;2023-06-14T02:28:10;100215.56;;;16.10;56.66
62881;BME280;48969;49.934;8.596;2023-06-14T02:30:35;100213.59;;;16.12;56.53
62881;BME280;48969;49.934;8.596;2023-06-14T02:33:00;100216.97;;;16.14;56.53
62881;BME280;48969;49.934;8.596;2023-06-14T02:35:25;100209.28;;;16.21;56.58
62881;BME280;48969;49.934;8.596;2023-06-14T02:37:52;100213.34;;;16.15;56.54
62881;BME280;48969;49.934;8.596;2023-06-14T02:40:18;100216.28;;;16.12;56.46
62881;BME280;48969;49.934;8.596;2023-06-14T02:42:43;100207.94;;;16.05;56.65
62881;BME280;48969;49.934;8.596;2023-06-14T02:45:09;100209.78;;;16.05;57.05
62881;BME280;48969;49.934;8.596;2023-06-14T02:47:34;100212.44;;;16.05;57.44
62881;BME280;48969;49.934;8.596;2023-06-14T02:50:00;100214.56;;;16.01;57.76
62881;BME280;48969;49.934;8.596;2023-06-14T02:52:26;100219.19;;;15.99;57.81
62881;BME280;48969;49.934;8.596;2023-06-14T02:54:53;100215.97;;;16.05;57.18
62881;BME280;48969;49.934;8.596;2023-06-14T02:57:19;100219.50;;;16.06;57.49
62881;BME280;48969;49.934;8.596;2023-06-14T02:59:44;100218.38;;;16.08;57.60
62881;BME280;48969;49.934;8.596;2023-06-14T03:02:10;100213.91;;;16.19;56.89
62881;BME280;48969;49.934;8.596;2023-06-14T03:04:35;100216.75;;;16.27;56.31
62881;BME280;48969;49.934;8.596;2023-06-14T03:07:02;100209.28;;;16.30;56.04
62881;BME280;48969;49.934;8.596;2023-06-14T03:09:38;100237.41;;;16.56;57.58
62881;BME280;48969;49.934;8.596;2023-06-14T03:12:04;100236.38;;;16.87;58.37
62881;BME280;48969;49.934;8.596;2023-06-14T03:14:32;100235.13;;;17.11;57.22
62881;BME280;48969;49.934;8.596;2023-06-14T03:16:57;100229.34;;;17.25;55.83
62881;BME280;48969;49.934;8.596;2023-06-14T03:19:24;100237.53;;;17.43;56.59
62881;BME280;48969;49.934;8.596;2023-06-14T03:21:51;100244.13;;;17.49;57.00
62881;BME280;48969;49.934;8.596;2023-06-14T03:24:17;100241.03;;;17.53;56.57
62881;BME280;48969;49.934;8.596;2023-06-14T03:26:43;100228.63;;;17.43;54.42
62881;BME280;48969;49.934;8.596;2023-06-14T03:29:08;100237.81;;;17.11;55.19
62881;BME280;48969;49.934;8.596;2023-06-14T03:31:34;100242.72;;;16.86;55.70
62881;BME280;48969;49.934;8.596;2023-06-14T03:34:01;100249.09;;;16.55;56.59
62881;BME280;48969;49.934;8.596;2023-06-14T03:36:26;100260.81;;;16.23;57.70
62881;BME280;48969;49.934;8.596;2023-06-14T03:38:53;100268.88;;;16.02;58.00
62881;BME280;48969;49.934;8.596;2023-06-14T03:41:18;100269.31;;;15.76;58.54
62881;BME280;48969;49.934;8.596;2023-06-14T03:43:44;100273.38;;;15.59;58.97
62881;BME280;48969;49.934;8.596;2023-06-14T03:46:09;100267.84;;;15.51;59.29
62881;BME280;48969;49.934;8.596;2023-06-14T03:48:34;100275.53;;;15.44;59.61
62881;BME280;48969;49.934;8.596;2023-06-14T03:50:59;100281.00;;;15.43;59.75
62881;BME280;48969;49.934;8.596;2023-06-14T03:53:25;100295.47;;;15.40;60.17
62881;BME280;48969;49.934;8.596;2023-06-14T03:55:52;100288.78;;;15.35;60.79
62881;BME280;48969;49.934;8.596;2023-06-14T03:58:19;100305.81;;;15.34;61.49
62881;BME280;48969;49.934;8.596;2023-06-14T04:00:45;100295.72;;;15.37;60.61
62881;BME280;48969;49.934;8.596;2023-06-14T04:03:10;100299.56;;;15.44;60.30
62881;BME280;48969;49.934;8.596;2023-06-14T04:05:38;100299.81;;;15.41;60.48
62881;BME280;48969;49.934;8.596;2023-06-14T04:08:07;100301.00;;;15.48;60.46
62881;BME280;48969;49.934;8.596;2023-06-14T04:10:34;100302.44;;;15.53;60.21
62881;BME280;48969;49.934;8.596;2023-06-14T04:12:59;100303.75;;;15.58;60.12
62881;BME280;48969;49.934;8.596;2023-06-14T04:15:24;100299.13;;;15.60;60.11
62881;BME280;48969;49.934;8.596;2023-06-14T04:17:49;100296.09;;;15.65;60.19
62881;BME280;48969;49.934;8.596;2023-06-14T04:20:15;100310.66;;;15.72;60.11
62881;BME280;48969;49.934;8.596;2023-06-14T04:22:42;100311.22;;;15.76;59.92
62881;BME280;48969;49.934;8.596;2023-06-14T04:25:08;100318.16;;;15.78;59.76
62881;BME280;48969;49.934;8.596;2023-06-14T04:27:33;100315.78;;;15.85;59.52
62881;BME280;48969;49.934;8.596;2023-06-14T04:30:01;100309.94;;;15.91;59.62
62881;BME280;48969;49.934;8.596;2023-06-14T04:32:28;100315.00;;;15.94;59.39
62881;BME280;48969;49.934;8.596;2023-06-14T04:35:07;100320.44;;;16.04;59.88
62881;BME280;48969;49.934;8.596;2023-06-14T04:37:32;100309.91;;;16.12;59.36
62881;BME280;48969;49.934;8.596;2023-06-14T04:39:58;100311.22;;;16.18;59.09
62881;BME280;48969;49.934;8.596;2023-06-14T04:42:24;100313.69;;;16.09;59.26
62881;BME280;48969;49.934;8.596;2023-06-14T04:44:51;100323.59;;;16.19;59.52
62881;BME280;48969;49.934;8.596;2023-06-14T04:47:20;100320.41;;;16.25;59.50
62881;BME280;48969;49.934;8.596;2023-06-14T04:49:46;100332.22;;;16.22;59.50
62881;BME280;48969;49.934;8.596;2023-06-14T04:52:11;100319.72;;;16.33;58.99
62881;BME280;48969;49.934;8.596;2023-06-14T04:54:38;100324.91;;;16.24;59.17
62881;BME280;48969;49.934;8.596;2023-06-14T04:57:06;100322.03;;;16.16;59.27
62881;BME280;48969;49.934;8.596;2023-06-14T04:59:31;100333.97;;;16.12;59.81
62881;BME280;48969;49.934;8.596;2023-06-14T05:02:00;100331.31;;;16.12;59.85
62881;BME280;48969;49.934;8.596;2023-06-14T05:04:26;100333.19;;;16.21;59.69
62881;BME280;48969;49.934;8.596;2023-06-14T05:06:53;100331.38;;;16.22;59.36
62881;BME280;48969;49.934;8.596;2023-06-14T05:09:20;100339.34;;;16.33;59.10
62881;BME280;48969;49.934;8.596;2023-06-14T05:11:45;100339.63;;;16.40;58.95
62881;BME280;48969;49.934;8.596;2023-06-14T05:14:11;100334.66;;;16.35;58.40
62881;BME280;48969;49.934;8.596;2023-06-14T05:16:37;100341.44;;;16.39;59.23
62881;BME280;48969;49.934;8.596;2023-06-14T05:19:03;100339.84;;;16.58;59.34
62881;BME280;48969;49.934;8.596;2023-06-14T05:21:29;100327.47;;;16.66;57.92
62881;BME280;48969;49.934;8.596;2023-06-14T05:23:54;100339.91;;;16.67;58.48
62881;BME280;48969;49.934;8.596;2023-06-14T05:26:21;100333.84;;;16.75;58.14
62881;BME280;48969;49.934;8.596;2023-06-14T05:28:48;100340.75;;;16.78;58.27
62881;BME280;48969;49.934;8.596;2023-06-14T05:31:14;100339.22;;;16.75;57.61
62881;BME280;48969;49.934;8.596;2023-06-14T05:33:40;100349.75;;;16.98;58.40
62881;BME280;48969;49.934;8.596;2023-06-14T05:36:05;100330.16;;;16.97;56.70
62881;BME280;48969;49.934;8.596;2023-06-14T05:38:30;100343.13;;;17.02;57.12
62881;BME280;48969;49.934;8.596;2023-06-14T05:40:58;100339.94;;;17.18;56.82
62881;BME280;48969;49.934;8.596;2023-06-14T05:43:24;100339.94;;;17.27;56.84
62881;BME280;48969;49.934;8.596;2023-06-14T05:45:49;100335.69;;;17.34;55.53
62881;BME280;48969;49.934;8.596;2023-06-14T05:48:15;100335.00;;;17.42;54.94
62881;BME280;48969;49.934;8.596;2023-06-14T05:50:40;100344.63;;;17.45;56.22
62881;BME280;48969;49.934;8.596;2023-06-14T05:53:05;100345.56;;;17.53;55.21
62881;BME280;48969;49.934;8.596;2023-06-14T05:55:31;100339.50;;;17.42;54.41
62881;BME280;48969;49.934;8.596;2023-06-14T05:57:56;100349.13;;;17.54;55.09
62881;BME280;48969;49.934;8.596;2023-06-14T06:00:21;100357.59;;;17.59;55.00
62881;BME280;48969;49.934;8.596;2023-06-14T06:02:47;100361.25;;;17.48;54.15
62881;BME280;48969;49.934;8.596;2023-06-14T06:05:13;100363.66;;;17.71;54.52
62881;BME280;48969;49.934;8.596;2023-06-14T06:07:39;100360.03;;;17.82;53.59
62881;BME280;48969;49.934;8.596;2023-06-14T06:10:09;100368.16;;;17.80;54.32
62881;BME280;48969;49.934;8.596;2023-06-14T06:12:34;100369.19;;;17.89;54.15
62881;BME280;48969;49.934;8.596;2023-06-14T06:15:00;100367.47;;;17.88;53.92
62881;BME280;48969;49.934;8.596;2023-06-14T06:17:26;100371.75;;;17.90;54.43
62881;BME280;48969;49.934;8.596;2023-06-14T06:19:51;100363.81;;;17.89;53.59
62881;BME280;48969;49.934;8.596;2023-06-14T06:22:16;100370.88;;;17.90;53.85
62881;BME280;48969;49.934;8.596;2023-06-14T06:24:42;100374.97;;;18.13;54.59
62881;BME280;48969;49.934;8.596;2023-06-14T06:27:07;100366.19;;;18.11;53.81
62881;BME280;48969;49.934;8.596;2023-06-14T06:29:37;100370.72;;;18.01;53.09
62881;BME280;48969;49.934;8.596;2023-06-14T06:32:03;100381.41;;;18.30;53.89
62881;BME280;48969;49.934;8.596;2023-06-14T06:34:28;100372.97;;;18.15;53.41
62881;BME280;48969;49.934;8.596;2023-06-14T06:36:53;100382.84;;;18.25;53.35
62881;BME280;48969;49.934;8.596;2023-06-14T06:39:19;100376.34;;;18.17;53.39
62881;BME280;48969;49.934;8.596;2023-06-14T06:41:45;100374.47;;;18.37;52.78
62881;BME280;48969;49.934;8.596;2023-06-14T06:44:10;100380.00;;;18.36;53.56
62881;BME280;48969;49.934;8.596;2023-06-14T06:46:36;100375.88;;;18.42;52.73
62881;BME280;48969;49.934;8.596;2023-06-14T06:49:08;100382.03;;;18.62;53.25
62881;BME280;48969;49.934;8.596;2023-06-14T06:51:35;100376.91;;;18.68;52.68
62881;BME280;48969;49.934;8.596;2023-06-14T06:54:00;100376.75;;;18.79;52.82
62881;BME280;48969;49.934;8.596;2023-06-14T06:56:25;100377.25;;;18.93;52.75
62881;BME280;48969;49.934;8.596;2023-06-14T06:58:52;100381.50;;;18.95;52.51
62881;BME280;48969;49.934;8.596;2023-06-14T07:01:17;100388.41;;;18.98;52.83
62881;BME280;48969;49.934;8.596;2023-06-14T07:03:44;100394.50;;;19.00;52.94
62881;BME280;48969;49.934;8.596;2023-06-14T07:06:10;100379.66;;;18.96;52.17
62881;BME280;48969;49.934;8.596;2023-06-14T07:08:36;100376.91;;;19.06;51.60
62881;BME280;48969;49.934;8.596;2023-06-14T07:11:05;100374.59;;;19.11;51.90
62881;BME280;48969;49.934;8.596;2023-06-14T07:13:31;100373.34;;;19.33;51.54
62881;BME280;48969;49.934;8.596;2023-06-14T07:16:00;100364.28;;;19.16;50.42
62881;BME280;48969;49.934;8.596;2023-06-14T07:18:26;100358.38;;;19.30;49.85
62881;BME280;48969;49.934;8.596;2023-06-14T07:20:52;100366.75;;;19.45;50.63
62881;BME280;48969;49.934;8.596;2023-06-14T07:23:19;100365.19;;;19.42;49.75
62881;BME280;48969;49.934;8.596;2023-06-14T07:25:44;100377.28;;;19.56;50.23
62881;BME280;48969;49.934;8.596;2023-06-14T07:28:10;100378.81;;;19.59;49.60
62881;BME280;48969;49.934;8.596;2023-06-14T07:30:35;100375.91;;;19.70;49.34
62881;BME280;48969;49.934;8.596;2023-06-14T07:33:00;100377.38;;;19.82;49.83
62881;BME280;48969;49.934;8.596;2023-06-14T07:35:26;100376.94;;;20.13;49.26
62881;BME280;48969;49.934;8.596;2023-06-14T07:37:51;100363.53;;;19.77;48.44
62881;BME280;48969;49.934;8.596;2023-06-14T07:40:16;100356.09;;;19.71;49.11
62881;BME280;48969;49.934;8.596;2023-06-14T07:42:45;100362.88;;;19.75;49.10
62881;BME280;48969;49.934;8.596;2023-06-14T07:45:13;100359.28;;;19.93;48.71
62881;BME280;48969;49.934;8.596;2023-06-14T07:47:38;100359.00;;;19.96;47.76
62881;BME280;48969;49.934;8.596;2023-06-14T07:50:04;100355.84;;;20.00;48.11
62881;BME280;48969;49.934;8.596;2023-06-14T07:52:29;100372.59;;;20.12;48.58
62881;BME280;48969;49.934;8.596;2023-06-14T07:54:54;100356.19;;;20.32;47.24
62881;BME280;48969;49.934;8.596;2023-06-14T07:57:20;100360.59;;;20.33;47.46
62881;BME280;48969;49.934;8.596;2023-06-14T07:59:46;100357.91;;;20.33;46.41
62881;BME280;48969;49.934;8.596;2023-06-14T08:02:11;100354.88;;;20.36;46.25
62881;BME280;48969;49.934;8.596;2023-06-14T08:04:36;100347.84;;;20.43;46.39
62881;BME280;48969;49.934;8.596;2023-06-14T08:07:05;100353.34;;;20.59;46.75
62881;BME280;48969;49.934;8.596;2023-06-14T08:09:30;100351.06;;;20.64;45.99
62881;BME280;48969;49.934;8.596;2023-06-14T08:11:56;100350.13;;;20.56;45.83
62881;BME280;48969;49.934;8.596;2023-06-14T08:14:21;100345.31;;;20.67;45.97
62881;BME280;48969;49.934;8.596;2023-06-14T08:16:47;100352.78;;;20.82;45.57
62881;BME280;48969;49.934;8.596;2023-06-14T08:19:12;100350.00;;;21.00;45.95
62881;BME280;48969;49.934;8.596;2023-06-14T08:21:37;100347.13;;;20.93;45.30
62881;BME280;48969;49.934;8.596;2023-06-14T08:24:03;100336.13;;;20.86;44.83
62881;BME280;48969;49.934;8.596;2023-06-14T08:26:29;100331.56;;;20.79;44.32
62881;BME280;48969;49.934;8.596;2023-06-14T08:28:55;100335.56;;;20.66;44.56
62881;BME280;48969;49.934;8.596;2023-06-14T08:31:20;100335.44;;;20.50;45.18
62881;BME280;48969;49.934;8.596;2023-06-14T08:33:46;100337.00;;;20.95;44.60
62881;BME280;48969;49.934;8.596;2023-06-14T08:36:11;100343.31;;;20.70;44.90
62881;BME280;48969;49.934;8.596;2023-06-14T08:38:37;100347.66;;;20.97;44.83
62881;BME280;48969;49.934;8.596;2023-06-14T08:41:05;100336.19;;;20.95;43.45
62881;BME280;48969;49.934;8.596;2023-06-14T08:43:34;100330.59;;;20.88;43.16
62881;BME280;48969;49.934;8.596;2023-06-14T08:46:03;100331.75;;;20.85;43.69
62881;BME280;48969;49.934;8.596;2023-06-14T08:48:29;100327.97;;;21.13;43.41
62881;BME280;48969;49.934;8.596;2023-06-14T08:50:59;100327.47;;;21.25;42.76
62881;BME280;48969;49.934;8.596;2023-06-14T08:53:33;100334.53;;;21.10;42.85
62881;BME280;48969;49.934;8.596;2023-06-14T08:56:02;100315.47;;;21.03;41.55
62881;BME280;48969;49.934;8.596;2023-06-14T08:58:30;100321.38;;;21.07;42.65
62881;BME280;48969;49.934;8.596;2023-06-14T09:01:01;100319.56;;;21.24;43.10
62881;BME280;48969;49.934;8.596;2023-06-14T09:03:26;100333.94;;;21.41;44.19
62881;BME280;48969;49.934;8.596;2023-06-14T09:05:56;100331.94;;;21.59;43.54
62881;BME280;48969;49.934;8.596;2023-06-14T09:08:24;100330.09;;;21.51;43.59
62881;BME280;48969;49.934;8.596;2023-06-14T09:10:50;100333.13;;;21.40;43.94
62881;BME280;48969;49.934;8.596;2023-06-14T09:13:16;100342.06;;;21.57;44.32
62881;BME280;48969;49.934;8.596;2023-06-14T09:15:42;100345.28;;;21.61;44.55
62881;BME280;48969;49.934;8.596;2023-06-14T09:18:07;100351.88;;;21.83;45.06
62881;BME280;48969;49.934;8.596;2023-06-14T09:20:32;100333.13;;;21.98;43.56
62881;BME280;48969;49.934;8.596;2023-06-14T09:22:58;100340.19;;;22.15;43.89
62881;BME280;48969;49.934;8.596;2023-06-14T09:25:23;100329.94;;;21.86;43.17
62881;BME280;48969;49.934;8.596;2023-06-14T09:27:51;100337.84;;;21.71;43.45
62881;BME280;48969;49.934;8.596;2023-06-14T09:30:19;100332.13;;;21.66;42.72
62881;BME280;48969;49.934;8.596;2023-06-14T09:32:45;100332.63;;;21.78;42.09
62881;BME280;48969;49.934;8.596;2023-06-14T09:35:11;100327.41;;;21.68;41.19
62881;BME280;48969;49.934;8.596;2023-06-14T09:37:36;100342.09;;;21.90;41.98
62881;BME280;48969;49.934;8.596;2023-06-14T09:40:05;100363.34;;;21.93;43.71
62881;BME280;48969;49.934;8.596;2023-06-14T09:42:31;100338.72;;;21.88;42.52
62881;BME280;48969;49.934;8.596;2023-06-14T09:44:57;100346.44;;;22.07;42.84
62881;BME280;48969;49.934;8.596;2023-06-14T09:47:23;100359.59;;;22.43;42.73
62881;BME280;48969;49.934;8.596;2023-06-14T09:49:49;100349.50;;;22.12;42.29
62881;BME280;48969;49.934;8.596;2023-06-14T09:52:16;100332.28;;;22.22;40.99
62881;BME280;48969;49.934;8.596;2023-06-14T09:54:43;100323.00;;;21.91;40.53
62881;BME280;48969;49.934;8.596;2023-06-14T09:57:22;100326.84;;;22.13;41.24
62881;BME280;48969;49.934;8.596;2023-06-14T09:59:48;100329.41;;;22.15;41.20
62881;BME280;48969;49.934;8.596;2023-06-14T10:02:29;100327.38;;;22.25;40.74
62881;BME280;48969;49.934;8.596;2023-06-14T10:05:03;100341.03;;;22.32;42.05
62881;BME280;48969;49.934;8.596;2023-06-14T10:07:32;100329.09;;;21.85;41.96
62881;BME280;48969;49.934;8.596;2023-06-14T10:10:01;100332.63;;;21.86;42.24
62881;BME280;48969;49.934;8.596;2023-06-14T10:12:26;100345.75;;;22.30;42.35
62881;BME280;48969;49.934;8.596;2023-06-14T10:14:52;100337.38;;;22.64;42.56
62881;BME280;48969;49.934;8.596;2023-06-14T10:17:49;100329.84;;;22.91;42.03
62881;BME280;48969;49.934;8.596;2023-06-14T10:20:33;100329.03;;;22.82;41.43
62881;BME280;48969;49.934;8.596;2023-06-14T10:23:21;100317.97;;;23.08;40.64
62881;BME280;48969;49.934;8.596;2023-06-14T10:25:56;100307.28;;;22.75;40.34
62881;BME280;48969;49.934;8.596;2023-06-14T10:28:22;100307.19;;;22.61;40.27
62881;BME280;48969;49.934;8.596;2023-06-14T10:31:04;100309.75;;;23.25;40.25
62881;BME280;48969;49.934;8.596;2023-06-14T10:33:31;100306.00;;;24.10;39.68
62881;BME280;48969;49.934;8.596;2023-06-14T10:41:27;100314.34;;;23.47;40.59
62881;BME280;48969;49.934;8.596;2023-06-14T10:44:11;100308.06;;;23.47;40.11
62881;BME280;48969;49.934;8.596;2023-06-14T10:46:58;100306.09;;;23.41;39.53
62881;BME280;48969;49.934;8.596;2023-06-14T10:49:43;100307.97;;;23.40;39.52
62881;BME280;48969;49.934;8.596;2023-06-14T10:52:14;100309.38;;;23.28;39.78
62881;BME280;48969;49.934;8.596;2023-06-14T10:55:09;100303.84;;;23.21;39.36
62881;BME280;48969;49.934;8.596;2023-06-14T10:57:47;100305.97;;;23.34;39.53
62881;BME280;48969;49.934;8.596;2023-06-14T11:00:16;100316.09;;;23.09;40.21
62881;BME280;48969;49.934;8.596;2023-06-14T11:10:56;100300.69;;;23.41;38.51
62881;BME280;48969;49.934;8.596;2023-06-14T11:13:24;100303.66;;;23.92;38.58
62881;BME280;48969;49.934;8.596;2023-06-14T11:15:51;100315.50;;;23.91;39.42
62881;BME280;48969;49.934;8.596;2023-06-14T11:18:24;100313.16;;;23.42;39.88
62881;BME280;48969;49.934;8.596;2023-06-14T11:20:52;100327.75;;;23.09;41.21
62881;BME280;48969;49.934;8.596;2023-06-14T11:23:17;100310.38;;;23.04;40.33
62881;BME280;48969;49.934;8.596;2023-06-14T11:25:43;100314.53;;;22.75;40.44
62881;BME280;48969;49.934;8.596;2023-06-14T11:28:08;100311.53;;;22.70;40.78
62881;BME280;48969;49.934;8.596;2023-06-14T11:30:34;100321.53;;;22.61;41.26
62881;BME280;48969;49.934;8.596;2023-06-14T11:32:59;100317.19;;;22.44;40.46
62881;BME280;48969;49.934;8.596;2023-06-14T11:35:25;100299.38;;;22.26;39.59
62881;BME280;48969;49.934;8.596;2023-06-14T11:37:55;100311.53;;;22.22;39.88
62881;BME280;48969;49.934;8.596;2023-06-14T11:40:23;100311.81;;;22.36;40.24
62881;BME280;48969;49.934;8.596;2023-06-14T11:42:49;100313.56;;;22.68;40.26
62881;BME280;48969;49.934;8.596;2023-06-14T11:45:14;100310.03;;;22.67;39.97
62881;BME280;48969;49.934;8.596;2023-06-14T11:47:48;100308.19;;;22.60;39.84
62881;BME280;48969;49.934;8.596;2023-06-14T11:50:13;100322.78;;;22.82;40.58
62881;BME280;48969;49.934;8.596;2023-06-14T11:52:38;100321.22;;;23.04;40.91
62881;BME280;48969;49.934;8.596;2023-06-14T11:55:04;100295.72;;;23.21;38.76
62881;BME280;48969;49.934;8.596;2023-06-14T11:57:34;100303.03;;;22.81;38.98
62881;BME280;48969;49.934;8.596;2023-06-14T12:00:03;100317.66;;;22.95;40.45
62881;BME280;48969;49.934;8.596;2023-06-14T12:02:34;100313.72;;;23.06;40.44
62881;BME280;48969;49.934;8.596;2023-06-14T12:05:05;100322.88;;;22.96;40.48
62881;BME280;48969;49.934;8.596;2023-06-14T12:07:32;100319.34;;;23.04;40.83
62881;BME280;48969;49.934;8.596;2023-06-14T12:10:07;100314.25;;;23.01;39.67
62881;BME280;48969;49.934;8.596;2023-06-14T12:12:38;100328.81;;;22.92;40.24
62881;BME280;48969;49.934;8.596;2023-06-14T12:15:05;100333.59;;;22.90;40.86
62881;BME280;48969;49.934;8.596;2023-06-14T12:17:35;100326.34;;;22.82;40.41
62881;BME280;48969;49.934;8.596;2023-06-14T12:20:09;100305.63;;;23.06;39.36
62881;BME280;48969;49.934;8.596;2023-06-14T12:25:24;100298.53;;;22.96;39.27
62881;BME280;48969;49.934;8.596;2023-06-14T12:27:55;100318.06;;;22.84;39.91
62881;BME280;48969;49.934;8.596;2023-06-14T12:30:21;100305.75;;;22.81;39.76
62881;BME280;48969;49.934;8.596;2023-06-14T12:32:56;100313.31;;;22.86;39.69
62881;BME280;48969;49.934;8.596;2023-06-14T12:35:21;100310.50;;;22.71;39.71
62881;BME280;48969;49.934;8.596;2023-06-14T12:37:50;100310.56;;;22.63;39.62
62881;BME280;48969;49.934;8.596;2023-06-14T12:40:16;100317.63;;;22.72;41.27
62881;BME280;48969;49.934;8.596;2023-06-14T12:42:42;100324.81;;;22.88;41.33
62881;BME280;48969;49.934;8.596;2023-06-14T12:45:08;100316.63;;;23.04;40.53
62881;BME280;48969;49.934;8.596;2023-06-14T12:47:33;100339.09;;;22.96;41.60
62881;BME280;48969;49.934;8.596;2023-06-14T12:50:10;100337.97;;;22.91;41.56
62881;BME280;48969;49.934;8.596;2023-06-14T12:52:36;100332.06;;;22.87;41.57
62881;BME280;48969;49.934;8.596;2023-06-14T12:55:03;100331.34;;;22.93;41.53
62881;BME280;48969;49.934;8.596;2023-06-14T12:57:29;100314.13;;;22.94;39.61
62881;BME280;48969;49.934;8.596;2023-06-14T12:59:54;100316.69;;;22.88;40.35
62881;BME280;48969;49.934;8.596;2023-06-14T13:02:22;100319.72;;;22.93;40.95
62881;BME280;48969;49.934;8.596;2023-06-14T13:04:49;100314.00;;;22.88;39.87
62881;BME280;48969;49.934;8.596;2023-06-14T13:07:15;100311.69;;;22.68;39.83